sensor_id;sensor_type;location;lat;lon;timestamp;P1;durP1;ratioP1;P2;durP2;ratioP2
56285;SDS011;42191;47.562;9.686;2022-07-30T00:02:24;30.50;;;28.63;;
56285;SDS011;42191;47.562;9.686;2022-07-30T00:04:50;31.30;;;29.40;;
56285;SDS011;42191;47.562;9.686;2022-07-30T00:07:16;31.90;;;29.92;;
56285;SDS011;42191;47.562;9.686;2022-07-30T00:09:42;30.77;;;28.92;;
56285;SDS011;42191;47.562;9.686;2022-07-30T00:12:08;31.20;;;29.23;;
56285;SDS011;42191;47.562;9.686;2022-07-30T00:14:35;31.48;;;29.58;;
56285;SDS011;42191;47.562;9.686;2022-07-30T00:17:01;32.10;;;30.20;;
56285;SDS011;42191;47.562;9.686;2022-07-30T00:19:28;30.65;;;28.58;;
56285;SDS011;42191;47.562;9.686;2022-07-30T00:21:54;31.23;;;29.10;;
56285;SDS011;42191;47.562;9.686;2022-07-30T00:24:20;30.50;;;28.70;;
56285;SDS011;42191;47.562;9.686;2022-07-30T00:26:47;30.38;;;28.38;;
56285;SDS011;42191;47.562;9.686;2022-07-30T00:29:13;30.92;;;28.92;;
56285;SDS011;42191;47.562;9.686;2022-07-30T00:31:40;30.77;;;28.88;;
56285;SDS011;42191;47.562;9.686;2022-07-30T00:34:06;30.48;;;28.63;;
56285;SDS011;42191;47.562;9.686;2022-07-30T00:36:32;31.27;;;29.38;;
56285;SDS011;42191;47.562;9.686;2022-07-30T00:38:58;31.60;;;29.60;;
56285;SDS011;42191;47.562;9.686;2022-07-30T00:41:25;30.10;;;28.20;;
56285;SDS011;42191;47.562;9.686;2022-07-30T00:43:51;31.73;;;29.73;;
56285;SDS011;42191;47.562;9.686;2022-07-30T00:46:17;30.67;;;28.83;;
56285;SDS011;42191;47.562;9.686;2022-07-30T00:48:44;30.05;;;28.25;;
56285;SDS011;42191;47.562;9.686;2022-07-30T00:51:10;28.92;;;27.20;;
56285;SDS011;42191;47.562;9.686;2022-07-30T00:53:37;32.63;;;30.60;;
56285;SDS011;42191;47.562;9.686;2022-07-30T00:56:03;30.10;;;28.30;;
56285;SDS011;42191;47.562;9.686;2022-07-30T00:58:30;30.00;;;28.20;;
56285;SDS011;42191;47.562;9.686;2022-07-30T01:00:56;31.58;;;29.58;;
56285;SDS011;42191;47.562;9.686;2022-07-30T01:03:22;28.85;;;27.10;;
56285;SDS011;42191;47.562;9.686;2022-07-30T01:05:48;30.58;;;28.67;;
56285;SDS011;42191;47.562;9.686;2022-07-30T01:08:15;31.33;;;29.23;;
56285;SDS011;42191;47.562;9.686;2022-07-30T01:10:41;31.38;;;29.50;;
56285;SDS011;42191;47.562;9.686;2022-07-30T01:13:07;31.65;;;29.70;;
56285;SDS011;42191;47.562;9.686;2022-07-30T01:15:34;29.00;;;27.30;;
56285;SDS011;42191;47.562;9.686;2022-07-30T01:18:02;30.65;;;28.75;;
56285;SDS011;42191;47.562;9.686;2022-07-30T01:20:32;29.75;;;27.95;;
56285;SDS011;42191;47.562;9.686;2022-07-30T01:23:09;29.38;;;27.63;;
56285;SDS011;42191;47.562;9.686;2022-07-30T01:26:01;31.75;;;29.85;;
56285;SDS011;42191;47.562;9.686;2022-07-30T01:28:32;30.30;;;28.50;;
56285;SDS011;42191;47.562;9.686;2022-07-30T01:31:02;30.17;;;28.20;;
56285;SDS011;42191;47.562;9.686;2022-07-30T01:33:29;30.25;;;28.15;;
56285;SDS011;42191;47.562;9.686;2022-07-30T01:35:58;29.83;;;27.98;;
56285;SDS011;42191;47.562;9.686;2022-07-30T01:38:26;29.95;;;28.15;;
56285;SDS011;42191;47.562;9.686;2022-07-30T01:40:54;28.77;;;27.02;;
56285;SDS011;42191;47.562;9.686;2022-07-30T01:43:21;29.10;;;27.40;;
56285;SDS011;42191;47.562;9.686;2022-07-30T01:45:49;31.95;;;29.70;;
56285;SDS011;42191;47.562;9.686;2022-07-30T01:48:18;31.13;;;29.25;;
56285;SDS011;42191;47.562;9.686;2022-07-30T01:50:48;30.85;;;28.80;;
56285;SDS011;42191;47.562;9.686;2022-07-30T01:53:17;30.50;;;28.50;;
56285;SDS011;42191;47.562;9.686;2022-07-30T01:55:46;29.75;;;28.02;;
56285;SDS011;42191;47.562;9.686;2022-07-30T01:58:15;29.88;;;27.88;;
56285;SDS011;42191;47.562;9.686;2022-07-30T02:00:43;29.92;;;28.13;;
56285;SDS011;42191;47.562;9.686;2022-07-30T02:03:12;31.60;;;29.70;;
56285;SDS011;42191;47.562;9.686;2022-07-30T02:05:39;30.90;;;28.90;;
56285;SDS011;42191;47.562;9.686;2022-07-30T02:08:16;31.08;;;29.17;;
56285;SDS011;42191;47.562;9.686;2022-07-30T02:10:53;29.27;;;27.47;;
56285;SDS011;42191;47.562;9.686;2022-07-30T02:13:28;29.45;;;27.65;;
56285;SDS011;42191;47.562;9.686;2022-07-30T02:15:58;29.10;;;27.30;;
56285;SDS011;42191;47.562;9.686;2022-07-30T02:18:31;30.77;;;28.88;;
56285;SDS011;42191;47.562;9.686;2022-07-30T02:21:05;31.45;;;29.52;;
56285;SDS011;42191;47.562;9.686;2022-07-30T02:23:39;30.65;;;28.83;;
56285;SDS011;42191;47.562;9.686;2022-07-30T02:26:08;31.27;;;29.27;;
56285;SDS011;42191;47.562;9.686;2022-07-30T02:28:40;29.38;;;27.58;;
56285;SDS011;42191;47.562;9.686;2022-07-30T02:31:09;31.27;;;29.38;;
56285;SDS011;42191;47.562;9.686;2022-07-30T02:33:37;30.65;;;28.85;;
56285;SDS011;42191;47.562;9.686;2022-07-30T02:36:06;30.35;;;28.55;;
56285;SDS011;42191;47.562;9.686;2022-07-30T02:38:35;31.35;;;29.45;;
56285;SDS011;42191;47.562;9.686;2022-07-30T02:41:03;30.73;;;28.73;;
56285;SDS011;42191;47.562;9.686;2022-07-30T02:43:31;31.67;;;29.48;;
56285;SDS011;42191;47.562;9.686;2022-07-30T02:45:58;31.15;;;29.25;;
56285;SDS011;42191;47.562;9.686;2022-07-30T02:48:25;30.65;;;28.83;;
56285;SDS011;42191;47.562;9.686;2022-07-30T02:50:53;30.63;;;28.63;;
56285;SDS011;42191;47.562;9.686;2022-07-30T02:53:21;30.38;;;28.48;;
56285;SDS011;42191;47.562;9.686;2022-07-30T02:55:49;30.90;;;28.88;;
56285;SDS011;42191;47.562;9.686;2022-07-30T02:58:21;29.98;;;27.98;;
56285;SDS011;42191;47.562;9.686;2022-07-30T03:00:49;31.60;;;29.60;;
56285;SDS011;42191;47.562;9.686;2022-07-30T03:03:17;29.33;;;27.52;;
56285;SDS011;42191;47.562;9.686;2022-07-30T03:05:44;30.65;;;28.75;;
56285;SDS011;42191;47.562;9.686;2022-07-30T03:08:14;31.10;;;29.05;;
56285;SDS011;42191;47.562;9.686;2022-07-30T03:10:41;29.80;;;28.00;;
56285;SDS011;42191;47.562;9.686;2022-07-30T03:13:09;30.98;;;29.15;;
56285;SDS011;42191;47.562;9.686;2022-07-30T03:15:36;30.58;;;28.58;;
56285;SDS011;42191;47.562;9.686;2022-07-30T03:18:11;29.77;;;27.90;;
56285;SDS011;42191;47.562;9.686;2022-07-30T03:20:38;30.27;;;28.42;;
56285;SDS011;42191;47.562;9.686;2022-07-30T03:23:06;29.63;;;27.83;;
56285;SDS011;42191;47.562;9.686;2022-07-30T03:25:33;29.40;;;27.67;;
56285;SDS011;42191;47.562;9.686;2022-07-30T03:28:01;31.15;;;29.25;;
56285;SDS011;42191;47.562;9.686;2022-07-30T03:30:29;29.67;;;27.88;;
56285;SDS011;42191;47.562;9.686;2022-07-30T03:32:57;30.58;;;28.67;;
56285;SDS011;42191;47.562;9.686;2022-07-30T03:35:24;30.05;;;28.00;;
56285;SDS011;42191;47.562;9.686;2022-07-30T03:37:51;29.27;;;27.50;;
56285;SDS011;42191;47.562;9.686;2022-07-30T03:40:18;29.85;;;28.05;;
56285;SDS011;42191;47.562;9.686;2022-07-30T03:42:45;29.80;;;28.00;;
56285;SDS011;42191;47.562;9.686;2022-07-30T03:45:12;30.67;;;28.77;;
56285;SDS011;42191;47.562;9.686;2022-07-30T03:47:40;29.73;;;27.92;;
56285;SDS011;42191;47.562;9.686;2022-07-30T03:50:08;29.98;;;28.17;;
56285;SDS011;42191;47.562;9.686;2022-07-30T03:52:37;31.88;;;29.65;;
56285;SDS011;42191;47.562;9.686;2022-07-30T03:55:05;29.63;;;27.80;;
56285;SDS011;42191;47.562;9.686;2022-07-30T03:57:33;29.23;;;27.40;;
56285;SDS011;42191;47.562;9.686;2022-07-30T03:59:59;30.35;;;28.55;;
56285;SDS011;42191;47.562;9.686;2022-07-30T04:02:26;30.10;;;28.23;;
56285;SDS011;42191;47.562;9.686;2022-07-30T04:04:52;30.17;;;28.38;;
56285;SDS011;42191;47.562;9.686;2022-07-30T04:07:18;31.25;;;29.35;;
56285;SDS011;42191;47.562;9.686;2022-07-30T04:09:44;29.83;;;28.02;;
56285;SDS011;42191;47.562;9.686;2022-07-30T04:12:10;29.73;;;27.67;;
56285;SDS011;42191;47.562;9.686;2022-07-30T04:14:39;30.02;;;28.02;;
56285;SDS011;42191;47.562;9.686;2022-07-30T04:17:16;30.10;;;28.20;;
56285;SDS011;42191;47.562;9.686;2022-07-30T04:19:49;30.23;;;28.27;;
56285;SDS011;42191;47.562;9.686;2022-07-30T04:22:26;30.77;;;28.88;;
56285;SDS011;42191;47.562;9.686;2022-07-30T04:24:55;29.33;;;27.52;;
56285;SDS011;42191;47.562;9.686;2022-07-30T04:27:23;30.40;;;28.55;;
56285;SDS011;42191;47.562;9.686;2022-07-30T04:29:50;29.73;;;27.70;;
56285;SDS011;42191;47.562;9.686;2022-07-30T04:32:18;31.30;;;29.30;;
56285;SDS011;42191;47.562;9.686;2022-07-30T04:34:45;30.05;;;28.20;;
56285;SDS011;42191;47.562;9.686;2022-07-30T04:37:12;29.88;;;27.98;;
56285;SDS011;42191;47.562;9.686;2022-07-30T04:39:40;29.65;;;27.77;;
56285;SDS011;42191;47.562;9.686;2022-07-30T04:42:06;30.02;;;28.17;;
56285;SDS011;42191;47.562;9.686;2022-07-30T04:44:32;32.10;;;30.05;;
56285;SDS011;42191;47.562;9.686;2022-07-30T04:46:59;30.00;;;28.10;;
56285;SDS011;42191;47.562;9.686;2022-07-30T04:49:25;29.67;;;27.58;;
56285;SDS011;42191;47.562;9.686;2022-07-30T04:51:52;30.08;;;28.08;;
56285;SDS011;42191;47.562;9.686;2022-07-30T04:54:19;30.23;;;28.10;;
56285;SDS011;42191;47.562;9.686;2022-07-30T04:56:48;28.58;;;26.85;;
56285;SDS011;42191;47.562;9.686;2022-07-30T04:59:16;29.55;;;27.50;;
56285;SDS011;42191;47.562;9.686;2022-07-30T05:01:45;30.17;;;28.38;;
56285;SDS011;42191;47.562;9.686;2022-07-30T05:04:13;29.25;;;27.45;;
56285;SDS011;42191;47.562;9.686;2022-07-30T05:06:41;30.83;;;28.92;;
56285;SDS011;42191;47.562;9.686;2022-07-30T05:09:09;30.13;;;27.85;;
56285;SDS011;42191;47.562;9.686;2022-07-30T05:11:36;30.98;;;28.98;;
56285;SDS011;42191;47.562;9.686;2022-07-30T05:14:02;29.95;;;28.15;;
56285;SDS011;42191;47.562;9.686;2022-07-30T05:16:28;30.38;;;28.48;;
56285;SDS011;42191;47.562;9.686;2022-07-30T05:18:57;29.85;;;28.05;;
56285;SDS011;42191;47.562;9.686;2022-07-30T05:21:24;31.77;;;29.77;;
56285;SDS011;42191;47.562;9.686;2022-07-30T05:23:50;30.17;;;28.33;;
56285;SDS011;42191;47.562;9.686;2022-07-30T05:26:20;30.60;;;28.60;;
56285;SDS011;42191;47.562;9.686;2022-07-30T05:28:46;29.17;;;27.38;;
56285;SDS011;42191;47.562;9.686;2022-07-30T05:31:12;29.42;;;27.67;;
56285;SDS011;42191;47.562;9.686;2022-07-30T05:33:38;29.80;;;28.00;;
56285;SDS011;42191;47.562;9.686;2022-07-30T05:36:07;30.48;;;28.60;;
56285;SDS011;42191;47.562;9.686;2022-07-30T05:38:34;28.10;;;26.40;;
56285;SDS011;42191;47.562;9.686;2022-07-30T05:41:00;28.92;;;27.02;;
56285;SDS011;42191;47.562;9.686;2022-07-30T05:43:26;28.65;;;26.85;;
56285;SDS011;42191;47.562;9.686;2022-07-30T05:45:52;29.50;;;27.70;;
56285;SDS011;42191;47.562;9.686;2022-07-30T05:48:18;29.65;;;27.75;;
56285;SDS011;42191;47.562;9.686;2022-07-30T05:50:44;27.30;;;25.50;;
56285;SDS011;42191;47.562;9.686;2022-07-30T05:53:10;29.05;;;27.25;;
56285;SDS011;42191;47.562;9.686;2022-07-30T05:55:36;29.30;;;27.50;;
56285;SDS011;42191;47.562;9.686;2022-07-30T05:58:02;29.70;;;27.80;;
56285;SDS011;42191;47.562;9.686;2022-07-30T06:00:28;30.02;;;28.13;;
56285;SDS011;42191;47.562;9.686;2022-07-30T06:02:54;29.73;;;27.92;;
56285;SDS011;42191;47.562;9.686;2022-07-30T06:05:20;27.20;;;25.60;;
56285;SDS011;42191;47.562;9.686;2022-07-30T06:07:47;28.45;;;26.70;;
56285;SDS011;42191;47.562;9.686;2022-07-30T06:10:13;28.77;;;27.08;;
56285;SDS011;42191;47.562;9.686;2022-07-30T06:12:39;27.42;;;25.77;;
56285;SDS011;42191;47.562;9.686;2022-07-30T06:15:07;29.10;;;27.30;;
56285;SDS011;42191;47.562;9.686;2022-07-30T06:17:39;30.52;;;28.63;;
56285;SDS011;42191;47.562;9.686;2022-07-30T06:20:13;29.17;;;27.25;;
56285;SDS011;42191;47.562;9.686;2022-07-30T06:22:41;29.05;;;27.25;;
56285;SDS011;42191;47.562;9.686;2022-07-30T06:25:07;28.88;;;27.08;;
56285;SDS011;42191;47.562;9.686;2022-07-30T06:27:34;29.15;;;27.35;;
56285;SDS011;42191;47.562;9.686;2022-07-30T06:30:01;28.85;;;27.00;;
56285;SDS011;42191;47.562;9.686;2022-07-30T06:32:30;29.08;;;27.08;;
56285;SDS011;42191;47.562;9.686;2022-07-30T06:34:56;29.55;;;27.75;;
56285;SDS011;42191;47.562;9.686;2022-07-30T06:37:22;29.02;;;27.13;;
56285;SDS011;42191;47.562;9.686;2022-07-30T06:39:49;29.05;;;27.15;;
56285;SDS011;42191;47.562;9.686;2022-07-30T06:42:15;28.85;;;27.05;;
56285;SDS011;42191;47.562;9.686;2022-07-30T06:44:41;29.00;;;27.27;;
56285;SDS011;42191;47.562;9.686;2022-07-30T06:47:08;27.40;;;25.60;;
56285;SDS011;42191;47.562;9.686;2022-07-30T06:49:34;29.67;;;27.67;;
56285;SDS011;42191;47.562;9.686;2022-07-30T06:52:01;29.50;;;27.58;;
56285;SDS011;42191;47.562;9.686;2022-07-30T06:54:28;29.27;;;27.42;;
56285;SDS011;42191;47.562;9.686;2022-07-30T06:56:54;28.63;;;26.80;;
56285;SDS011;42191;47.562;9.686;2022-07-30T06:59:20;28.85;;;26.95;;
56285;SDS011;42191;47.562;9.686;2022-07-30T07:01:46;28.73;;;26.90;;
56285;SDS011;42191;47.562;9.686;2022-07-30T07:04:13;29.02;;;27.23;;
56285;SDS011;42191;47.562;9.686;2022-07-30T07:06:39;28.75;;;27.00;;
56285;SDS011;42191;47.562;9.686;2022-07-30T07:09:05;28.90;;;27.08;;
56285;SDS011;42191;47.562;9.686;2022-07-30T07:11:32;29.08;;;27.08;;
56285;SDS011;42191;47.562;9.686;2022-07-30T07:13:58;27.25;;;25.55;;
56285;SDS011;42191;47.562;9.686;2022-07-30T07:16:24;29.83;;;28.02;;
56285;SDS011;42191;47.562;9.686;2022-07-30T07:18:50;29.48;;;27.52;;
56285;SDS011;42191;47.562;9.686;2022-07-30T07:21:17;28.25;;;26.45;;
56285;SDS011;42191;47.562;9.686;2022-07-30T07:23:43;27.05;;;25.20;;
56285;SDS011;42191;47.562;9.686;2022-07-30T07:26:12;29.73;;;27.75;;
56285;SDS011;42191;47.562;9.686;2022-07-30T07:28:38;28.27;;;26.27;;
56285;SDS011;42191;47.562;9.686;2022-07-30T07:31:05;29.45;;;27.65;;
56285;SDS011;42191;47.562;9.686;2022-07-30T07:33:32;29.38;;;27.58;;
56285;SDS011;42191;47.562;9.686;2022-07-30T07:35:58;29.17;;;27.23;;
56285;SDS011;42191;47.562;9.686;2022-07-30T07:38:24;29.13;;;27.42;;
56285;SDS011;42191;47.562;9.686;2022-07-30T07:40:50;28.90;;;27.10;;
56285;SDS011;42191;47.562;9.686;2022-07-30T07:43:17;29.02;;;27.13;;
56285;SDS011;42191;47.562;9.686;2022-07-30T07:45:43;29.60;;;27.80;;
56285;SDS011;42191;47.562;9.686;2022-07-30T07:48:12;29.58;;;27.77;;
56285;SDS011;42191;47.562;9.686;2022-07-30T07:50:38;29.52;;;27.73;;
56285;SDS011;42191;47.562;9.686;2022-07-30T07:53:05;30.00;;;27.65;;
56285;SDS011;42191;47.562;9.686;2022-07-30T07:55:31;29.13;;;27.23;;
56285;SDS011;42191;47.562;9.686;2022-07-30T07:57:57;29.92;;;28.08;;
56285;SDS011;42191;47.562;9.686;2022-07-30T08:00:23;29.35;;;27.45;;
56285;SDS011;42191;47.562;9.686;2022-07-30T08:02:49;27.55;;;25.75;;
56285;SDS011;42191;47.562;9.686;2022-07-30T08:05:16;29.25;;;27.35;;
56285;SDS011;42191;47.562;9.686;2022-07-30T08:07:42;28.55;;;26.75;;
56285;SDS011;42191;47.562;9.686;2022-07-30T08:10:09;28.15;;;26.38;;
56285;SDS011;42191;47.562;9.686;2022-07-30T08:12:37;29.70;;;27.80;;
56285;SDS011;42191;47.562;9.686;2022-07-30T08:15:04;28.48;;;26.73;;
56285;SDS011;42191;47.562;9.686;2022-07-30T08:17:30;27.35;;;25.65;;
56285;SDS011;42191;47.562;9.686;2022-07-30T08:19:57;27.85;;;26.13;;
56285;SDS011;42191;47.562;9.686;2022-07-30T08:22:24;29.50;;;27.65;;
56285;SDS011;42191;47.562;9.686;2022-07-30T08:24:51;29.33;;;27.52;;
56285;SDS011;42191;47.562;9.686;2022-07-30T08:27:18;28.35;;;26.60;;
56285;SDS011;42191;47.562;9.686;2022-07-30T08:29:44;29.95;;;28.05;;
56285;SDS011;42191;47.562;9.686;2022-07-30T08:32:10;29.90;;;28.00;;
56285;SDS011;42191;47.562;9.686;2022-07-30T08:34:36;29.33;;;27.25;;
56285;SDS011;42191;47.562;9.686;2022-07-30T08:37:02;29.83;;;27.75;;
56285;SDS011;42191;47.562;9.686;2022-07-30T08:39:28;30.40;;;28.30;;
56285;SDS011;42191;47.562;9.686;2022-07-30T08:41:54;29.48;;;27.63;;
56285;SDS011;42191;47.562;9.686;2022-07-30T08:44:21;30.23;;;28.23;;
56285;SDS011;42191;47.562;9.686;2022-07-30T08:46:48;29.70;;;27.77;;
56285;SDS011;42191;47.562;9.686;2022-07-30T08:49:20;28.77;;;26.67;;
56285;SDS011;42191;47.562;9.686;2022-07-30T08:51:50;29.52;;;27.70;;
56285;SDS011;42191;47.562;9.686;2022-07-30T08:54:17;30.00;;;28.10;;
56285;SDS011;42191;47.562;9.686;2022-07-30T08:56:44;29.83;;;27.92;;
56285;SDS011;42191;47.562;9.686;2022-07-30T08:59:13;30.33;;;28.10;;
56285;SDS011;42191;47.562;9.686;2022-07-30T09:01:40;28.90;;;27.00;;
56285;SDS011;42191;47.562;9.686;2022-07-30T09:04:06;30.65;;;28.75;;
56285;SDS011;42191;47.562;9.686;2022-07-30T09:06:33;30.27;;;28.35;;
56285;SDS011;42191;47.562;9.686;2022-07-30T09:09:00;30.77;;;28.52;;
56285;SDS011;42191;47.562;9.686;2022-07-30T09:11:26;29.63;;;27.83;;
56285;SDS011;42191;47.562;9.686;2022-07-30T09:13:52;29.40;;;27.40;;
56285;SDS011;42191;47.562;9.686;2022-07-30T09:18:51;31.00;;;28.95;;
56285;SDS011;42191;47.562;9.686;2022-07-30T09:21:25;30.38;;;28.48;;
56285;SDS011;42191;47.562;9.686;2022-07-30T09:23:56;29.98;;;27.98;;
56285;SDS011;42191;47.562;9.686;2022-07-30T09:26:31;30.00;;;27.95;;
56285;SDS011;42191;47.562;9.686;2022-07-30T09:29:19;30.52;;;28.50;;
56285;SDS011;42191;47.562;9.686;2022-07-30T09:31:53;29.80;;;27.20;;
56285;SDS011;42191;47.562;9.686;2022-07-30T09:34:31;30.38;;;28.48;;
56285;SDS011;42191;47.562;9.686;2022-07-30T09:37:02;30.27;;;28.27;;
56285;SDS011;42191;47.562;9.686;2022-07-30T09:39:40;31.08;;;28.98;;
56285;SDS011;42191;47.562;9.686;2022-07-30T09:44:44;28.33;;;26.42;;
56285;SDS011;42191;47.562;9.686;2022-07-30T09:47:44;30.17;;;27.70;;
56285;SDS011;42191;47.562;9.686;2022-07-30T09:50:15;31.88;;;29.73;;
56285;SDS011;42191;47.562;9.686;2022-07-30T09:52:44;30.10;;;28.20;;
56285;SDS011;42191;47.562;9.686;2022-07-30T09:55:11;30.98;;;28.95;;
56285;SDS011;42191;47.562;9.686;2022-07-30T09:57:54;29.90;;;28.00;;
56285;SDS011;42191;47.562;9.686;2022-07-30T10:00:23;30.80;;;28.80;;
56285;SDS011;42191;47.562;9.686;2022-07-30T10:02:51;29.67;;;27.70;;
56285;SDS011;42191;47.562;9.686;2022-07-30T10:05:18;30.20;;;28.20;;
56285;SDS011;42191;47.562;9.686;2022-07-30T10:10:17;29.65;;;27.75;;
56285;SDS011;42191;47.562;9.686;2022-07-30T10:12:58;30.42;;;28.23;;
56285;SDS011;42191;47.562;9.686;2022-07-30T10:15:29;29.38;;;27.58;;
56285;SDS011;42191;47.562;9.686;2022-07-30T10:17:58;30.05;;;28.02;;
56285;SDS011;42191;47.562;9.686;2022-07-30T10:20:25;30.52;;;28.52;;
56285;SDS011;42191;47.562;9.686;2022-07-30T10:22:52;29.45;;;27.52;;
56285;SDS011;42191;47.562;9.686;2022-07-30T10:25:19;29.70;;;27.75;;
56285;SDS011;42191;47.562;9.686;2022-07-30T10:27:47;29.23;;;27.33;;
56285;SDS011;42191;47.562;9.686;2022-07-30T10:30:13;29.20;;;27.40;;
56285;SDS011;42191;47.562;9.686;2022-07-30T10:32:40;27.70;;;26.00;;
56285;SDS011;42191;47.562;9.686;2022-07-30T10:35:08;28.58;;;26.55;;
56285;SDS011;42191;47.562;9.686;2022-07-30T10:37:36;28.90;;;26.90;;
56285;SDS011;42191;47.562;9.686;2022-07-30T10:45:27;28.98;;;27.17;;
56285;SDS011;42191;47.562;9.686;2022-07-30T10:48:07;28.65;;;26.75;;
56285;SDS011;42191;47.562;9.686;2022-07-30T10:50:34;28.67;;;26.63;;
56285;SDS011;42191;47.562;9.686;2022-07-30T10:56:14;27.80;;;26.00;;
56285;SDS011;42191;47.562;9.686;2022-07-30T10:58:57;29.08;;;27.17;;
56285;SDS011;42191;47.562;9.686;2022-07-30T11:06:43;28.45;;;26.75;;
56285;SDS011;42191;47.562;9.686;2022-07-30T11:12:05;27.95;;;26.23;;
56285;SDS011;42191;47.562;9.686;2022-07-30T11:17:13;26.95;;;25.13;;
56285;SDS011;42191;47.562;9.686;2022-07-30T11:22:39;27.75;;;25.83;;
56285;SDS011;42191;47.562;9.686;2022-07-30T11:25:37;27.33;;;25.52;;
56285;SDS011;42191;47.562;9.686;2022-07-30T11:27:57;27.50;;;25.60;;
56285;SDS011;42191;47.562;9.686;2022-07-30T11:33:41;27.88;;;26.17;;
56285;SDS011;42191;47.562;9.686;2022-07-30T11:35:42;27.65;;;25.90;;
56285;SDS011;42191;47.562;9.686;2022-07-30T11:38:09;27.80;;;26.00;;
56285;SDS011;42191;47.562;9.686;2022-07-30T11:45:51;27.88;;;26.08;;
56285;SDS011;42191;47.562;9.686;2022-07-30T11:48:35;26.80;;;25.10;;
56285;SDS011;42191;47.562;9.686;2022-07-30T11:51:03;26.67;;;24.92;;
56285;SDS011;42191;47.562;9.686;2022-07-30T11:53:30;27.02;;;25.13;;
56285;SDS011;42191;47.562;9.686;2022-07-30T11:55:57;27.05;;;25.35;;
56285;SDS011;42191;47.562;9.686;2022-07-30T12:00:57;26.07;;;24.47;;
56285;SDS011;42191;47.562;9.686;2022-07-30T12:03:25;26.75;;;24.90;;
56285;SDS011;42191;47.562;9.686;2022-07-30T12:05:52;26.27;;;24.67;;
56285;SDS011;42191;47.562;9.686;2022-07-30T12:08:19;27.05;;;25.35;;
56285;SDS011;42191;47.562;9.686;2022-07-30T12:11:04;26.40;;;24.70;;
56285;SDS011;42191;47.562;9.686;2022-07-30T12:13:30;26.50;;;24.70;;
56285;SDS011;42191;47.562;9.686;2022-07-30T12:15:57;26.92;;;25.15;;
56285;SDS011;42191;47.562;9.686;2022-07-30T12:18:27;26.92;;;25.23;;
56285;SDS011;42191;47.562;9.686;2022-07-30T12:20:54;27.50;;;25.48;;
56285;SDS011;42191;47.562;9.686;2022-07-30T12:23:26;25.30;;;23.70;;
56285;SDS011;42191;47.562;9.686;2022-07-30T12:25:53;25.83;;;24.23;;
56285;SDS011;42191;47.562;9.686;2022-07-30T12:28:24;25.67;;;23.98;;
56285;SDS011;42191;47.562;9.686;2022-07-30T12:30:52;26.40;;;24.70;;
56285;SDS011;42191;47.562;9.686;2022-07-30T12:33:22;26.95;;;25.23;;
56285;SDS011;42191;47.562;9.686;2022-07-30T12:35:52;26.95;;;25.20;;
56285;SDS011;42191;47.562;9.686;2022-07-30T12:38:20;26.45;;;24.75;;
56285;SDS011;42191;47.562;9.686;2022-07-30T12:40:50;25.77;;;23.45;;
56285;SDS011;42191;47.562;9.686;2022-07-30T12:46:23;26.05;;;24.38;;
56285;SDS011;42191;47.562;9.686;2022-07-30T12:48:51;24.92;;;23.33;;
56285;SDS011;42191;47.562;9.686;2022-07-30T12:51:19;26.15;;;24.30;;
56285;SDS011;42191;47.562;9.686;2022-07-30T12:53:48;26.10;;;24.30;;
56285;SDS011;42191;47.562;9.686;2022-07-30T12:58:42;26.23;;;24.25;;
56285;SDS011;42191;47.562;9.686;2022-07-30T13:01:09;26.77;;;24.95;;
56285;SDS011;42191;47.562;9.686;2022-07-30T13:03:36;26.95;;;24.85;;
56285;SDS011;42191;47.562;9.686;2022-07-30T13:06:13;26.13;;;24.48;;
56285;SDS011;42191;47.562;9.686;2022-07-30T13:08:56;25.35;;;23.73;;
56285;SDS011;42191;47.562;9.686;2022-07-30T13:11:24;25.73;;;24.15;;
56285;SDS011;42191;47.562;9.686;2022-07-30T13:14:09;26.25;;;24.55;;
56285;SDS011;42191;47.562;9.686;2022-07-30T13:16:38;26.10;;;24.20;;
56285;SDS011;42191;47.562;9.686;2022-07-30T13:19:05;25.10;;;23.38;;
56285;SDS011;42191;47.562;9.686;2022-07-30T13:21:33;23.88;;;22.23;;
56285;SDS011;42191;47.562;9.686;2022-07-30T13:23:59;23.48;;;21.85;;
56285;SDS011;42191;47.562;9.686;2022-07-30T13:26:26;22.80;;;21.30;;
56285;SDS011;42191;47.562;9.686;2022-07-30T13:28:55;22.23;;;20.83;;
56285;SDS011;42191;47.562;9.686;2022-07-30T13:31:22;21.70;;;20.10;;
56285;SDS011;42191;47.562;9.686;2022-07-30T13:33:48;21.65;;;20.15;;
56285;SDS011;42191;47.562;9.686;2022-07-30T13:36:15;21.45;;;20.02;;
56285;SDS011;42191;47.562;9.686;2022-07-30T13:38:42;21.65;;;20.17;;
56285;SDS011;42191;47.562;9.686;2022-07-30T13:41:08;21.20;;;19.90;;
56285;SDS011;42191;47.562;9.686;2022-07-30T13:43:34;20.50;;;18.95;;
56285;SDS011;42191;47.562;9.686;2022-07-30T13:46:01;20.42;;;19.02;;
56285;SDS011;42191;47.562;9.686;2022-07-30T13:48:28;20.90;;;19.30;;
56285;SDS011;42191;47.562;9.686;2022-07-30T13:50:55;21.15;;;19.83;;
56285;SDS011;42191;47.562;9.686;2022-07-30T13:53:21;20.98;;;19.45;;
56285;SDS011;42191;47.562;9.686;2022-07-30T13:55:47;21.70;;;20.10;;
56285;SDS011;42191;47.562;9.686;2022-07-30T13:58:13;22.05;;;20.45;;
56285;SDS011;42191;47.562;9.686;2022-07-30T14:00:40;21.63;;;20.13;;
56285;SDS011;42191;47.562;9.686;2022-07-30T14:03:09;22.13;;;20.50;;
56285;SDS011;42191;47.562;9.686;2022-07-30T14:05:36;21.55;;;20.15;;
56285;SDS011;42191;47.562;9.686;2022-07-30T14:08:03;22.23;;;20.58;;
56285;SDS011;42191;47.562;9.686;2022-07-30T14:10:31;22.00;;;20.60;;
56285;SDS011;42191;47.562;9.686;2022-07-30T14:13:02;21.63;;;20.33;;
56285;SDS011;42191;47.562;9.686;2022-07-30T14:15:29;22.15;;;20.63;;
56285;SDS011;42191;47.562;9.686;2022-07-30T14:17:56;21.52;;;20.13;;
56285;SDS011;42191;47.562;9.686;2022-07-30T14:20:23;21.17;;;19.88;;
56285;SDS011;42191;47.562;9.686;2022-07-30T14:22:50;21.33;;;19.92;;
56285;SDS011;42191;47.562;9.686;2022-07-30T14:25:16;21.00;;;19.70;;
56285;SDS011;42191;47.562;9.686;2022-07-30T14:27:43;21.10;;;19.77;;
56285;SDS011;42191;47.562;9.686;2022-07-30T14:30:09;21.10;;;19.77;;
56285;SDS011;42191;47.562;9.686;2022-07-30T14:32:36;20.73;;;19.15;;
56285;SDS011;42191;47.562;9.686;2022-07-30T14:35:03;20.02;;;18.83;;
56285;SDS011;42191;47.562;9.686;2022-07-30T14:37:32;20.33;;;18.92;;
56285;SDS011;42191;47.562;9.686;2022-07-30T14:39:59;19.98;;;18.58;;
56285;SDS011;42191;47.562;9.686;2022-07-30T14:42:26;19.48;;;18.27;;
56285;SDS011;42191;47.562;9.686;2022-07-30T14:44:52;20.20;;;18.80;;
56285;SDS011;42191;47.562;9.686;2022-07-30T14:47:18;19.55;;;18.33;;
56285;SDS011;42191;47.562;9.686;2022-07-30T14:49:44;19.25;;;18.15;;
56285;SDS011;42191;47.562;9.686;2022-07-30T14:52:10;20.55;;;18.80;;
56285;SDS011;42191;47.562;9.686;2022-07-30T14:54:37;20.40;;;19.20;;
56285;SDS011;42191;47.562;9.686;2022-07-30T14:57:03;19.38;;;18.17;;
56285;SDS011;42191;47.562;9.686;2022-07-30T14:59:32;19.13;;;18.02;;
56285;SDS011;42191;47.562;9.686;2022-07-30T15:01:59;19.60;;;18.40;;
56285;SDS011;42191;47.562;9.686;2022-07-30T15:04:25;19.67;;;18.48;;
56285;SDS011;42191;47.562;9.686;2022-07-30T15:06:51;19.33;;;18.23;;
56285;SDS011;42191;47.562;9.686;2022-07-30T15:09:17;19.23;;;18.13;;
56285;SDS011;42191;47.562;9.686;2022-07-30T15:11:46;19.40;;;18.30;;
56285;SDS011;42191;47.562;9.686;2022-07-30T15:14:13;19.60;;;18.40;;